Terminal Aerodrome Forecast
Issued by NWS Billings, MT

Home | Current Version | Previous Version | Text Only | Print | Product List | Glossary On
Versions: 1 2 3 4 5 6 7 8 9 10 11 12
000
FTUS45 KBYZ 231120
TAFMLS
TAF
KMLS 231120Z 2312/2412 29011KT P6SM BKN120
     FM231400 30028G38KT P6SM VCSH BKN050 BKN080
     FM232200 33025KT P6SM BKN080
     FM240100 27018G28KT P6SM BKN060=

USA.gov is the U.S. government's official web portal to all federal, state and local government web resources and services.